Time;durP1;ratioP1;P1;durP2;ratioP2;P2;SDS_P1;SDS_P2;PMS_P1;PMS_P2;Temp;Humidity;BMP_temperature;BMP_pressure;BME280_temperature;BME280_humidity;BME280_pressure;Samples;Min_cycle;Max_cycle;Signal;HPM_P1;HPM_P2
2023/12/26 00:01:58;;;;;;;11.50;2.22;;;;;;;9.80;100.00;100470.06;5040810;28;20025;-60
2023/12/26 00:04:23;;;;;;;4.72;1.73;;;;;;;9.78;100.00;100480.59;5042142;28;20034;-61
2023/12/26 00:06:49;;;;;;;6.50;1.70;;;;;;;9.76;100.00;100477.31;5039739;28;20060;-61
2023/12/26 00:09:15;;;;;;;6.50;2.00;;;;;;;9.71;100.00;100466.38;5041076;28;20760;-61
2023/12/26 00:11:44;;;;;;;5.97;2.10;;;;;;;9.70;100.00;100473.03;5038569;28;20037;-62
2023/12/26 00:14:10;;;;;;;5.68;1.88;;;;;;;9.68;100.00;100470.56;5039623;28;20823;-61
2023/12/26 00:16:36;;;;;;;5.03;1.73;;;;;;;9.65;100.00;100471.19;5043535;28;20029;-61
2023/12/26 00:19:02;;;;;;;8.52;1.80;;;;;;;9.65;100.00;100476.72;5043288;28;20032;-62
2023/12/26 00:21:27;;;;;;;5.57;2.00;;;;;;;9.68;100.00;100476.09;5043748;28;20512;-63
2023/12/26 00:23:53;;;;;;;3.50;1.92;;;;;;;9.65;100.00;100464.84;5044978;28;20022;-61
2023/12/26 00:26:18;;;;;;;7.97;2.08;;;;;;;9.67;100.00;100463.44;5034533;28;20378;-62
2023/12/26 00:28:44;;;;;;;6.57;1.98;;;;;;;9.67;100.00;100470.88;5043584;28;20488;-62
2023/12/26 00:31:09;;;;;;;6.13;1.90;;;;;;;9.69;100.00;100465.88;5040786;28;20061;-62
2023/12/26 00:33:34;;;;;;;3.90;1.80;;;;;;;9.61;100.00;100456.38;5034902;28;20469;-62
2023/12/26 00:36:00;;;;;;;6.13;1.90;;;;;;;9.64;100.00;100469.56;5039046;28;20029;-62
2023/12/26 00:38:25;;;;;;;6.60;1.80;;;;;;;9.66;100.00;100472.00;5043853;28;20065;-61
2023/12/26 00:40:51;;;;;;;4.07;2.00;;;;;;;9.62;100.00;100471.81;5045677;28;20468;-62
2023/12/26 00:43:16;;;;;;;5.55;1.70;;;;;;;9.62;100.00;100465.47;5035903;28;20041;-62
2023/12/26 00:45:42;;;;;;;4.07;1.63;;;;;;;9.65;100.00;100473.13;5046104;28;20031;-63
2023/12/26 00:48:07;;;;;;;4.57;1.70;;;;;;;9.64;100.00;100475.09;5036081;28;20037;-62
2023/12/26 00:50:34;;;;;;;3.42;1.70;;;;;;;9.69;100.00;100474.16;5040655;28;20035;-62
2023/12/26 00:53:00;;;;;;;4.85;1.60;;;;;;;9.60;100.00;100478.78;5050814;28;20021;-62
2023/12/26 00:55:25;;;;;;;4.60;1.70;;;;;;;9.63;100.00;100486.44;5045233;28;20132;-66
2023/12/26 00:57:51;;;;;;;5.07;1.90;;;;;;;9.60;100.00;100479.56;5043071;28;20091;-66
2023/12/26 01:00:17;;;;;;;7.05;1.88;;;;;;;9.63;100.00;100490.03;5034397;28;20029;-63
2023/12/26 01:02:42;;;;;;;5.93;1.85;;;;;;;9.60;100.00;100495.34;5041582;28;20020;-63
2023/12/26 01:05:08;;;;;;;6.13;1.85;;;;;;;9.57;100.00;100496.78;5038622;28;20783;-64
2023/12/26 01:07:33;;;;;;;7.90;2.20;;;;;;;9.55;100.00;100499.03;5041555;28;20534;-63
2023/12/26 01:10:02;;;;;;;5.50;2.20;;;;;;;9.54;100.00;100488.31;5040942;28;20021;-64
2023/12/26 01:12:28;;;;;;;5.18;2.08;;;;;;;9.50;100.00;100491.66;5045647;28;20476;-64
2023/12/26 01:14:53;;;;;;;5.57;2.17;;;;;;;9.50;100.00;100499.13;5044819;28;20177;-64
2023/12/26 01:17:18;;;;;;;6.07;2.22;;;;;;;9.46;100.00;100501.69;5036619;28;20029;-64
2023/12/26 01:19:44;;;;;;;6.43;3.30;;;;;;;9.43;100.00;100507.00;5042374;28;20021;-65
2023/12/26 01:22:09;;;;;;;6.05;2.35;;;;;;;9.44;100.00;100498.44;5042417;28;20029;-63
2023/12/26 01:24:35;;;;;;;7.85;2.47;;;;;;;9.43;100.00;100509.75;5044492;28;20029;-63
2023/12/26 01:27:00;;;;;;;8.50;2.60;;;;;;;9.41;100.00;100509.25;5040850;28;20495;-64
2023/12/26 01:29:25;;;;;;;6.25;2.42;;;;;;;9.40;100.00;100511.19;5040544;28;20128;-62
2023/12/26 01:31:51;;;;;;;7.68;2.47;;;;;;;9.38;100.00;100510.69;5045099;28;20506;-63
2023/12/26 01:34:17;;;;;;;7.90;2.60;;;;;;;9.38;100.00;100507.13;5037368;28;20053;-63
2023/12/26 01:36:42;;;;;;;8.63;2.33;;;;;;;9.39;100.00;100508.75;5041614;28;20532;-63
2023/12/26 01:39:08;;;;;;;9.25;2.88;;;;;;;9.40;100.00;100511.19;5040342;28;20024;-63
2023/12/26 01:41:35;;;;;;;8.63;2.88;;;;;;;9.39;100.00;100517.84;5047204;28;20071;-63
2023/12/26 01:44:00;;;;;;;7.50;2.38;;;;;;;9.39;100.00;100515.09;5033658;28;20706;-63
2023/12/26 01:46:26;;;;;;;5.65;2.40;;;;;;;9.36;100.00;100516.53;5032167;28;20052;-62
2023/12/26 01:48:52;;;;;;;4.50;2.33;;;;;;;9.41;100.00;100520.28;5042009;28;20639;-63
2023/12/26 01:51:19;;;;;;;5.03;2.42;;;;;;;9.40;100.00;100522.25;5045978;28;20465;-63
2023/12/26 01:53:45;;;;;;;4.65;2.30;;;;;;;9.41;100.00;100520.28;5037411;28;20044;-62
2023/12/26 01:56:14;;;;;;;6.50;2.42;;;;;;;9.43;100.00;100540.13;5040612;28;20411;-64
2023/12/26 01:58:41;;;;;;;6.38;2.20;;;;;;;9.40;100.00;100541.56;5040670;28;20088;-63
2023/12/26 02:01:06;;;;;;;8.02;2.50;;;;;;;9.40;100.00;100546.28;5040980;28;20029;-63
2023/12/26 02:03:32;;;;;;;5.85;2.40;;;;;;;9.41;100.00;100540.44;5036178;28;20940;-65
2023/12/26 02:06:00;;;;;;;5.35;2.40;;;;;;;9.39;100.00;100534.41;5035283;28;20045;-63
2023/12/26 02:08:26;;;;;;;6.93;2.45;;;;;;;9.39;100.00;100539.13;5037092;28;20041;-63
2023/12/26 02:10:51;;;;;;;7.95;2.80;;;;;;;9.39;100.00;100539.13;5032701;28;20033;-63
2023/12/26 02:13:17;;;;;;;5.30;2.55;;;;;;;9.37;100.00;100536.66;5034971;28;20021;-62
2023/12/26 02:15:43;;;;;;;6.88;2.85;;;;;;;9.36;100.00;100535.00;5035347;28;20037;-62
2023/12/26 02:18:08;;;;;;;8.00;3.10;;;;;;;9.36;100.00;100530.31;5038776;28;20404;-62
2023/12/26 02:20:34;;;;;;;9.80;3.30;;;;;;;9.35;100.00;100542.50;5036535;28;20104;-62
2023/12/26 02:22:59;;;;;;;8.60;3.17;;;;;;;9.36;100.00;100535.84;5041518;28;20170;-63
2023/12/26 02:25:24;;;;;;;7.20;3.10;;;;;;;9.38;100.00;100548.53;5036801;28;20053;-62
2023/12/26 02:27:50;;;;;;;9.13;3.47;;;;;;;9.38;100.00;100551.28;5043863;28;20032;-61
2023/12/26 02:30:16;;;;;;;8.50;3.10;;;;;;;9.40;100.00;100554.56;5046058;28;20495;-61
2023/12/26 02:32:45;;;;;;;8.68;3.40;;;;;;;9.39;100.00;100558.44;5042693;28;20033;-62
2023/12/26 02:35:11;;;;;;;9.55;3.60;;;;;;;9.37;100.00;100558.72;5031906;28;20440;-63
2023/12/26 02:37:37;;;;;;;8.90;3.50;;;;;;;9.40;100.00;100557.34;5043952;28;20112;-62
2023/12/26 02:40:03;;;;;;;10.05;3.78;;;;;;;9.41;100.00;100562.53;5044119;28;20025;-63
2023/12/26 02:42:31;;;;;;;12.75;3.80;;;;;;;9.41;100.00;100561.69;5043271;28;20021;-63
2023/12/26 02:44:59;;;;;;;12.43;3.67;;;;;;;9.40;100.00;100554.56;5038975;28;20017;-63
2023/12/26 02:47:25;;;;;;;13.52;4.13;;;;;;;9.40;100.00;100557.34;5035904;28;20168;-63
2023/12/26 02:49:51;;;;;;;11.20;3.70;;;;;;;9.41;100.00;100558.94;5044353;28;20025;-63
2023/12/26 02:52:17;;;;;;;10.02;3.80;;;;;;;9.41;100.00;100558.94;5033184;28;20044;-62
2023/12/26 02:54:43;;;;;;;10.10;3.80;;;;;;;9.40;100.00;100555.38;5036607;28;20033;-63
2023/12/26 02:57:08;;;;;;;9.80;3.50;;;;;;;9.40;100.00;100557.34;5038133;28;20391;-63
2023/12/26 02:59:33;;;;;;;13.48;4.03;;;;;;;9.36;100.00;100566.22;5040662;28;20137;-63
2023/12/26 03:01:59;;;;;;;11.32;4.18;;;;;;;9.38;100.00;100568.66;5043027;28;20052;-63
2023/12/26 03:04:24;;;;;;;11.50;3.92;;;;;;;9.38;100.00;100576.13;5039773;28;20028;-63
2023/12/26 03:06:50;;;;;;;11.93;3.95;;;;;;;9.40;100.00;100584.94;5042525;28;20396;-62
2023/12/26 03:09:15;;;;;;;11.40;4.10;;;;;;;9.38;100.00;100598.22;5039802;28;20021;-62
2023/12/26 03:11:40;;;;;;;8.98;3.53;;;;;;;9.41;100.00;100603.13;5037410;28;20025;-64
2023/12/26 03:14:06;;;;;;;11.43;3.83;;;;;;;9.38;100.00;100595.47;5046067;28;20032;-63
2023/12/26 03:16:32;;;;;;;11.02;3.50;;;;;;;9.39;100.00;100608.16;5047649;28;20200;-63
2023/12/26 03:18:57;;;;;;;10.52;3.72;;;;;;;9.39;100.00;100608.94;5041891;28;20017;-63
2023/12/26 03:21:22;;;;;;;8.23;3.00;;;;;;;9.36;100.00;100618.66;5039761;28;20021;-63
2023/12/26 03:23:49;;;;;;;9.07;3.30;;;;;;;9.38;100.00;100612.03;5042784;28;20021;-63
2023/12/26 03:26:15;;;;;;;11.02;3.50;;;;;;;9.39;100.00;100622.75;5048823;28;20048;-65
2023/12/26 03:28:40;;;;;;;7.38;2.70;;;;;;;9.40;100.00;100613.34;5047251;28;20021;-63
2023/12/26 03:31:06;;;;;;;5.03;2.30;;;;;;;9.41;100.00;100611.41;5047701;28;20017;-63
2023/12/26 03:33:32;;;;;;;7.65;2.50;;;;;;;9.39;100.00;100628.28;5046664;28;20120;-63
2023/12/26 03:35:58;;;;;;;8.48;2.10;;;;;;;9.36;100.00;100617.84;5037925;28;20022;-63
2023/12/26 03:38:23;;;;;;;9.88;2.17;;;;;;;9.36;100.00;100613.16;5046508;28;20025;-64
2023/12/26 03:40:49;;;;;;;9.00;1.92;;;;;;;9.35;100.00;100627.25;5042387;28;20029;-63
2023/12/26 03:43:16;;;;;;;7.82;2.00;;;;;;;9.30;100.00;100619.91;5045948;28;20110;-63
2023/12/26 03:45:42;;;;;;;6.93;1.83;;;;;;;9.28;100.00;100596.44;5038777;28;20476;-63
2023/12/26 03:48:07;;;;;;;9.10;2.03;;;;;;;9.26;100.00;100616.09;5048572;28;20050;-65
2023/12/26 03:50:32;;;;;;;12.52;2.33;;;;;;;9.25;100.00;100622.72;5041963;28;20040;-64
2023/12/26 03:52:58;;;;;;;10.70;1.90;;;;;;;9.25;100.00;100628.25;5041688;28;20013;-63
2023/12/26 03:55:23;;;;;;;7.18;1.65;;;;;;;9.26;100.00;100637.38;5043674;28;20026;-62
2023/12/26 03:57:48;;;;;;;10.50;1.85;;;;;;;9.21;100.00;100635.47;5035656;28;20049;-63
2023/12/26 04:00:15;;;;;;;9.70;2.38;;;;;;;9.22;100.00;100656.44;5047589;28;20029;-63
2023/12/26 04:02:40;;;;;;;13.15;1.98;;;;;;;9.20;100.00;100636.63;5046549;28;20036;-62
2023/12/26 04:05:07;;;;;;;11.18;1.90;;;;;;;9.24;100.00;100636.84;5046946;28;20021;-62
2023/12/26 04:07:32;;;;;;;9.68;1.92;;;;;;;9.20;100.00;100644.91;5043987;28;20041;-62
2023/12/26 04:09:58;;;;;;;12.73;2.08;;;;;;;9.19;100.00;100648.78;5040602;28;20029;-61
2023/12/26 04:12:24;;;;;;;11.55;2.03;;;;;;;9.20;100.00;100658.72;5038386;28;20028;-64
2023/12/26 04:14:49;;;;;;;12.82;2.00;;;;;;;9.18;100.00;100658.19;5039603;28;20018;-63
2023/12/26 04:17:15;;;;;;;16.27;2.42;;;;;;;9.17;100.00;100662.06;5038209;28;20138;-64
2023/12/26 04:19:40;;;;;;;13.05;2.10;;;;;;;9.14;100.00;100666.25;5038540;28;20056;-64
2023/12/26 04:22:05;;;;;;;13.10;2.15;;;;;;;9.13;100.00;100659.09;5035754;28;20136;-63
2023/12/26 04:24:31;;;;;;;12.02;2.25;;;;;;;9.06;100.00;100658.66;5037741;28;20108;-62
2023/12/26 04:26:56;;;;;;;12.35;2.10;;;;;;;9.14;100.00;100668.16;5042080;28;20109;-65
2023/12/26 04:29:22;;;;;;;11.05;2.10;;;;;;;9.12;100.00;100676.75;5038076;28;20021;-64
2023/12/26 04:31:47;;;;;;;9.32;1.85;;;;;;;9.12;100.00;100696.09;5043641;28;20028;-63
2023/12/26 04:34:12;;;;;;;10.80;1.90;;;;;;;9.12;100.00;100689.72;5049352;28;20021;-62
2023/12/26 04:36:38;;;;;;;10.95;2.05;;;;;;;9.10;100.00;100703.03;5047719;28;20103;-63
2023/12/26 04:39:04;;;;;;;9.50;2.13;;;;;;;9.11;100.00;100686.16;5044470;28;20024;-64
2023/12/26 04:41:33;;;;;;;13.85;2.60;;;;;;;9.10;100.00;100711.31;5050754;28;20052;-63
2023/12/26 04:43:58;;;;;;;15.10;2.50;;;;;;;9.08;100.00;100706.06;5038819;28;20030;-63
2023/12/26 04:46:24;;;;;;;16.27;2.67;;;;;;;9.01;100.00;100709.22;5043983;28;20060;-64
2023/12/26 04:48:49;;;;;;;16.00;2.65;;;;;;;9.01;100.00;100722.19;5040374;28;20044;-62
2023/12/26 04:51:17;;;;;;;15.98;2.13;;;;;;;8.99;100.00;100732.69;5046205;28;20029;-62
2023/12/26 04:53:47;;;;;;;17.88;2.50;;;;;;;9.02;100.00;100732.09;5044434;28;20033;-63
2023/12/26 04:56:19;;;;;;;16.30;2.90;;;;;;;8.98;100.00;100726.38;5043142;28;20226;-63
2023/12/26 04:58:49;;;;;;;10.55;1.98;;;;;;;8.85;100.00;100727.94;5043476;28;20064;-62
2023/12/26 05:01:15;;;;;;;11.85;2.00;;;;;;;8.83;100.00;100740.38;5046271;28;20034;-62
2023/12/26 05:03:41;;;;;;;12.48;2.10;;;;;;;8.79;100.00;100750.38;5041891;28;20021;-62
2023/12/26 05:06:07;;;;;;;11.30;1.90;;;;;;;8.74;100.00;100760.34;5042529;28;20120;-62
2023/12/26 05:08:32;;;;;;;14.70;2.10;;;;;;;8.70;100.00;100763.97;5042361;28;20029;-62
2023/12/26 05:10:58;;;;;;;12.82;2.10;;;;;;;8.64;100.00;100760.50;5039850;28;20497;-61
2023/12/26 05:13:23;;;;;;;7.95;1.60;;;;;;;8.69;100.00;100768.69;5044794;28;20031;-61
2023/12/26 05:15:49;;;;;;;13.07;2.22;;;;;;;8.59;100.00;100771.56;5036417;28;20529;-62
2023/12/26 05:18:15;;;;;;;10.75;1.70;;;;;;;8.56;100.00;100764.72;5035696;28;20029;-61
2023/12/26 05:20:40;;;;;;;16.08;2.13;;;;;;;8.52;100.00;100760.88;5038962;28;20026;-61
2023/12/26 05:23:05;;;;;;;11.85;1.85;;;;;;;8.46;100.00;100773.06;5042910;28;20098;-61
2023/12/26 05:25:31;;;;;;;10.80;2.13;;;;;;;8.44;100.00;100791.84;5033465;28;20032;-61
2023/12/26 05:27:56;;;;;;;12.68;1.80;;;;;;;8.41;100.00;100800.69;5049174;28;20430;-61
2023/12/26 05:30:22;;;;;;;11.43;1.88;;;;;;;8.36;100.00;100792.47;5039624;28;20030;-62
2023/12/26 05:32:48;;;;;;;15.38;2.10;;;;;;;8.37;100.00;100785.84;5033914;28;20155;-61
2023/12/26 05:35:13;;;;;;;10.25;2.05;;;;;;;8.33;100.00;100793.91;5037114;28;20190;-61
2023/12/26 05:37:39;;;;;;;11.32;2.00;;;;;;;8.27;100.00;100801.41;5048329;28;20079;-61
2023/12/26 05:40:05;;;;;;;14.40;2.10;;;;;;;8.28;100.00;100811.31;5040777;28;20029;-62
2023/12/26 05:42:30;;;;;;;14.40;2.80;;;;;;;8.28;100.00;100816.81;5042119;28;20021;-61
2023/12/26 05:44:56;;;;;;;17.23;2.70;;;;;;;8.29;100.00;100823.16;5044878;28;20342;-61
2023/12/26 05:47:21;;;;;;;12.30;2.20;;;;;;;8.32;100.00;100828.09;5036725;28;20036;-62
2023/12/26 05:49:46;;;;;;;14.13;2.08;;;;;;;8.34;100.00;100834.13;5040906;28;20116;-62
2023/12/26 05:52:12;;;;;;;12.35;1.98;;;;;;;8.38;100.00;100845.41;5036780;28;20477;-62
2023/12/26 05:54:37;;;;;;;14.00;2.22;;;;;;;8.37;100.00;100843.75;5033103;28;20385;-64
2023/12/26 05:57:03;;;;;;;11.18;1.90;;;;;;;8.39;100.00;100847.03;5031271;28;20036;-62
2023/12/26 05:59:28;;;;;;;14.55;1.80;;;;;;;8.40;100.00;100851.44;5041380;28;20104;-63
2023/12/26 06:01:54;;;;;;;14.30;2.05;;;;;;;8.35;100.00;100857.00;5034462;28;20109;-62
2023/12/26 06:04:19;;;;;;;11.48;2.00;;;;;;;8.34;100.00;100852.59;5039727;28;20041;-62
2023/12/26 06:06:44;;;;;;;13.68;2.10;;;;;;;8.24;100.00;100861.78;5038086;28;20029;-63
2023/12/26 06:09:10;;;;;;;11.82;2.28;;;;;;;8.28;100.00;100873.88;5039239;28;20427;-63
2023/12/26 06:11:35;;;;;;;13.93;1.75;;;;;;;8.24;100.00;100868.13;5042338;28;20031;-63
2023/12/26 06:14:00;;;;;;;13.18;1.73;;;;;;;8.20;100.00;100871.75;5043209;28;20026;-63
2023/12/26 06:16:26;;;;;;;11.73;2.10;;;;;;;8.13;100.00;100888.59;5036502;28;20032;-63
2023/12/26 06:18:51;;;;;;;14.50;2.08;;;;;;;8.09;100.00;100893.06;5047203;28;20052;-62
2023/12/26 06:21:17;;;;;;;11.70;1.67;;;;;;;8.02;100.00;100885.13;5044204;28;20044;-62
2023/12/26 06:23:42;;;;;;;14.25;2.00;;;;;;;7.97;100.00;100899.75;5041028;28;20042;-64
2023/12/26 06:26:07;;;;;;;8.57;1.55;;;;;;;7.96;100.00;100900.88;5037497;28;20079;-64
2023/12/26 06:28:33;;;;;;;15.45;2.42;;;;;;;7.91;100.00;100911.94;5032805;28;20388;-63
2023/12/26 06:30:58;;;;;;;10.98;1.90;;;;;;;7.84;100.00;100905.09;5035197;28;20096;-63
2023/12/26 06:33:24;;;;;;;11.40;1.70;;;;;;;7.76;100.00;100915.63;5039864;28;20049;-63
2023/12/26 06:35:50;;;;;;;11.07;2.00;;;;;;;7.79;100.00;100927.97;5037411;28;20022;-63
2023/12/26 06:38:16;;;;;;;12.38;2.00;;;;;;;7.72;100.00;100939.31;5041097;28;20025;-64
2023/12/26 06:40:42;;;;;;;13.82;1.85;;;;;;;7.68;100.00;100927.22;5052796;28;20048;-63
2023/12/26 06:43:10;;;;;;;13.13;1.92;;;;;;;7.62;100.00;100929.19;5050393;28;20043;-64
2023/12/26 06:45:35;;;;;;;12.38;2.15;;;;;;;7.57;100.00;100945.72;5052757;28;20060;-63
2023/12/26 06:48:01;;;;;;;11.38;2.45;;;;;;;7.57;100.00;100940.22;5042359;28;20113;-63
2023/12/26 06:50:26;;;;;;;12.75;2.17;;;;;;;7.52;100.00;100937.50;5051970;28;20031;-61
2023/12/26 06:52:51;;;;;;;10.70;2.00;;;;;;;7.49;100.00;100955.41;5059439;28;20534;-62
2023/12/26 06:55:17;;;;;;;8.77;1.75;;;;;;;7.46;100.00;100949.66;5050297;28;20372;-64
2023/12/26 06:57:42;;;;;;;10.85;1.70;;;;;;;7.39;100.00;100951.88;5042470;28;20459;-62
2023/12/26 07:00:08;;;;;;;13.30;1.92;;;;;;;7.32;100.00;100950.25;5045405;28;20044;-63
2023/12/26 07:02:34;;;;;;;12.02;2.03;;;;;;;7.33;100.00;100962.06;5045647;28;20052;-64
2023/12/26 07:04:59;;;;;;;11.55;2.05;;;;;;;7.26;100.00;100961.56;5044397;28;20036;-63
2023/12/26 07:07:25;;;;;;;13.18;2.20;;;;;;;7.21;100.00;100964.34;5038071;28;20036;-62
2023/12/26 07:09:50;;;;;;;9.60;1.98;;;;;;;7.18;100.00;100968.44;5042242;28;20029;-63
2023/12/26 07:12:16;;;;;;;12.23;2.10;;;;;;;7.15;100.00;100980.03;5036419;28;20056;-63
2023/12/26 07:14:41;;;;;;;13.63;2.28;;;;;;;7.09;100.00;100992.97;5039970;28;20029;-63
2023/12/26 07:17:06;;;;;;;14.90;2.00;;;;;;;7.06;100.00;101010.03;5039534;28;20041;-64
2023/12/26 07:19:32;;;;;;;13.90;2.20;;;;;;;7.02;100.00;101015.28;5040651;28;20025;-64
2023/12/26 07:21:57;;;;;;;13.00;2.50;;;;;;;-146.25;100.00;70816.00;5034539;28;20052;-65
2023/12/26 07:24:23;;;;;;;18.42;2.55;;;;;;;-146.25;100.00;70816.00;5042746;28;20043;-62
2023/12/26 07:26:48;;;;;;;7.10;1.75;;;;;;;-146.25;100.00;70816.00;5038236;28;20024;-62
2023/12/26 07:29:13;;;;;;;14.57;2.70;;;;;;;-146.25;100.00;70816.00;5040405;28;20481;-63
2023/12/26 07:31:39;;;;;;;12.27;2.20;;;;;;;-146.25;100.00;70816.00;5035250;28;20033;-63
2023/12/26 07:34:08;;;;;;;20.10;3.60;;;;;;;-146.25;100.00;70816.00;5034056;28;20025;-64
2023/12/26 07:36:34;;;;;;;15.48;3.00;;;;;;;-146.25;100.00;70816.00;5034641;28;20039;-64
2023/12/26 07:38:59;;;;;;;12.07;2.63;;;;;;;-146.25;100.00;70816.00;5038163;28;20022;-64
2023/12/26 07:41:25;;;;;;;14.05;2.65;;;;;;;-146.25;100.00;70816.00;5038798;28;20102;-64
2023/12/26 07:43:51;;;;;;;15.15;2.50;;;;;;;-146.25;100.00;70816.00;5038040;28;20535;-63
2023/12/26 07:46:17;;;;;;;10.25;2.40;;;;;;;-146.25;100.00;70816.00;5036982;28;20527;-65
2023/12/26 07:48:42;;;;;;;16.08;2.33;;;;;;;-146.25;100.00;70816.00;5034865;28;20025;-65
2023/12/26 07:51:10;;;;;;;15.50;3.22;;;;;;;-146.25;100.00;70816.00;5033998;28;20017;-65
2023/12/26 07:53:36;;;;;;;14.25;2.85;;;;;;;-146.25;100.00;70816.00;5034322;28;20025;-64
2023/12/26 07:56:01;;;;;;;8.70;2.03;;;;;;;-146.25;100.00;70816.00;5033091;28;20105;-64
2023/12/26 07:58:26;;;;;;;24.15;5.63;;;;;;;-146.25;100.00;70816.00;5034726;28;20057;-64
2023/12/26 08:00:52;;;;;;;31.17;8.50;;;;;;;-146.25;100.00;70816.00;5035928;28;20108;-64
2023/12/26 08:03:17;;;;;;;19.90;3.33;;;;;;;-146.25;100.00;70816.00;5038895;28;20066;-63
2023/12/26 08:05:43;;;;;;;20.98;3.65;;;;;;;-146.25;100.00;70816.00;5036714;28;20508;-65
2023/12/26 08:08:11;;;;;;;15.25;2.47;;;;;;;-146.25;100.00;70816.00;5036599;28;20358;-64
2023/12/26 08:10:37;;;;;;;15.13;2.83;;;;;;;-146.25;100.00;70816.00;5036584;28;20406;-63
2023/12/26 08:13:03;;;;;;;13.27;2.45;;;;;;;-146.25;100.00;70816.00;5035350;28;20067;-64
2023/12/26 08:15:29;;;;;;;13.02;2.40;;;;;;;-146.25;100.00;70816.00;5037310;28;20052;-64
2023/12/26 08:17:55;;;;;;;13.60;3.08;;;;;;;-146.25;100.00;70816.00;5036316;28;20036;-64
2023/12/26 08:20:20;;;;;;;14.32;2.50;;;;;;;-146.25;100.00;70816.00;5037421;28;20025;-63
2023/12/26 08:22:46;;;;;;;13.93;2.50;;;;;;;-146.25;100.00;70816.00;5036832;28;20032;-63
2023/12/26 08:25:11;;;;;;;15.98;2.60;;;;;;;-146.25;100.00;70816.00;5038711;28;20021;-63
2023/12/26 08:27:37;;;;;;;17.90;2.70;;;;;;;-146.25;100.00;70816.00;5032070;28;20047;-65
2023/12/26 08:30:03;;;;;;;18.23;3.50;;;;;;;-146.25;100.00;70816.00;5036016;28;20037;-66
2023/12/26 08:32:29;;;;;;;16.35;2.78;;;;;;;-146.25;100.00;70816.00;5039076;28;20550;-63
2023/12/26 08:34:54;;;;;;;17.13;2.75;;;;;;;-146.25;100.00;70816.00;5037097;28;20108;-66
2023/12/26 08:37:20;;;;;;;15.10;2.78;;;;;;;-146.25;100.00;70816.00;5039401;28;20413;-65
2023/12/26 08:39:45;;;;;;;14.60;2.22;;;;;;;-146.25;100.00;70816.00;5035083;28;20025;-65
2023/12/26 08:42:10;;;;;;;12.10;2.63;;;;;;;-146.25;100.00;70816.00;5036731;28;20021;-65
2023/12/26 08:44:36;;;;;;;12.88;2.67;;;;;;;-146.25;100.00;70816.00;5038498;28;20030;-65
2023/12/26 08:47:03;;;;;;;14.63;3.13;;;;;;;-146.25;100.00;70816.00;5041026;28;20349;-65
2023/12/26 08:49:28;;;;;;;14.25;2.35;;;;;;;-146.25;100.00;70816.00;5037069;28;20021;-65
2023/12/26 08:51:54;;;;;;;11.82;2.33;;;;;;;-146.25;100.00;70816.00;5039485;28;20036;-65
2023/12/26 08:54:20;;;;;;;16.50;2.42;;;;;;;-146.25;100.00;70816.00;5037601;28;20650;-64
2023/12/26 08:56:46;;;;;;;13.43;2.50;;;;;;;-146.25;100.00;70816.00;5041539;28;20052;-64
2023/12/26 08:59:11;;;;;;;15.50;2.50;;;;;;;-146.25;100.00;70816.00;5039249;28;20434;-64
2023/12/26 09:01:36;;;;;;;18.35;2.83;;;;;;;-146.25;100.00;70816.00;5041197;28;20504;-66
2023/12/26 09:04:03;;;;;;;16.55;2.50;;;;;;;-146.25;100.00;70816.00;5040687;28;20120;-64
2023/12/26 09:06:28;;;;;;;13.90;2.55;;;;;;;-146.25;100.00;70816.00;5042724;28;20170;-64
2023/12/26 09:08:54;;;;;;;20.75;3.30;;;;;;;-146.25;100.00;70816.00;5036038;28;20510;-64
2023/12/26 09:11:19;;;;;;;14.98;2.17;;;;;;;-146.25;100.00;70816.00;5036750;28;20087;-63
2023/12/26 09:13:45;;;;;;;12.02;2.30;;;;;;;-146.25;100.00;70816.00;5036343;28;20025;-64
2023/12/26 09:16:10;;;;;;;15.65;2.97;;;;;;;-146.25;100.00;70816.00;5037465;28;20070;-64
2023/12/26 09:18:36;;;;;;;17.50;3.78;;;;;;;-146.25;100.00;70816.00;5038789;28;20029;-65
2023/12/26 09:21:01;;;;;;;17.75;2.60;;;;;;;-146.25;100.00;70816.00;5037413;28;20090;-65
2023/12/26 09:23:26;;;;;;;15.52;2.75;;;;;;;-146.25;100.00;70816.00;5036090;28;20021;-61
2023/12/26 09:25:52;;;;;;;15.35;3.03;;;;;;;-146.25;100.00;70816.00;5035438;28;20102;-62
2023/12/26 09:28:17;;;;;;;15.77;2.72;;;;;;;-146.25;100.00;70816.00;5035752;28;20120;-62
2023/12/26 09:30:42;;;;;;;17.30;2.72;;;;;;;-146.25;100.00;70816.00;5035269;28;20026;-62
2023/12/26 09:33:08;;;;;;;13.95;2.50;;;;;;;-146.25;100.00;70816.00;5036918;28;20400;-63
2023/12/26 09:35:34;;;;;;;15.88;2.50;;;;;;;-146.25;100.00;70816.00;5033881;28;20025;-62
2023/12/26 09:37:59;;;;;;;14.57;2.55;;;;;;;-146.25;100.00;70816.00;5035273;28;20025;-62
2023/12/26 09:40:25;;;;;;;16.00;3.53;;;;;;;-146.25;100.00;70816.00;5035617;28;20437;-63
2023/12/26 09:42:50;;;;;;;16.48;3.25;;;;;;;-146.25;100.00;70816.00;5034558;28;20375;-62
2023/12/26 09:45:17;;;;;;;14.60;3.15;;;;;;;-146.25;100.00;70816.00;5034844;28;20029;-63
2023/12/26 09:47:43;;;;;;;13.38;2.78;;;;;;;-146.25;100.00;70816.00;5037019;28;20028;-63
2023/12/26 09:50:09;;;;;;;17.17;2.70;;;;;;;-146.25;100.00;70816.00;5035315;28;20036;-59
2023/12/26 09:52:35;;;;;;;19.40;3.05;;;;;;;-146.25;100.00;70816.00;5033374;28;20676;-61
2023/12/26 09:55:02;;;;;;;18.70;2.72;;;;;;;-146.25;100.00;70816.00;5036635;28;20041;-65
2023/12/26 09:57:28;;;;;;;16.65;3.10;;;;;;;-146.25;100.00;70816.00;5035784;28;20046;-66
2023/12/26 09:59:55;;;;;;;13.73;2.90;;;;;;;-146.25;100.00;70816.00;5034845;28;20120;-66
2023/12/26 10:02:20;;;;;;;20.98;3.58;;;;;;;-146.25;100.00;70816.00;5035479;28;20025;-65
2023/12/26 10:04:46;;;;;;;22.83;3.67;;;;;;;-146.25;100.00;70816.00;5031268;28;20071;-66
2023/12/26 10:07:14;;;;;;;14.88;2.70;;;;;;;-146.25;100.00;70816.00;5034723;28;20682;-62
2023/12/26 10:09:39;;;;;;;17.45;2.65;;;;;;;-146.25;100.00;70816.00;5036640;28;20104;-66
2023/12/26 10:12:05;;;;;;;19.35;3.47;;;;;;;-146.25;100.00;70816.00;5036824;28;20446;-67
2023/12/26 10:14:31;;;;;;;17.65;2.97;;;;;;;-146.25;100.00;70816.00;5037763;28;20066;-67
2023/12/26 10:16:57;;;;;;;17.92;2.83;;;;;;;-146.25;100.00;70816.00;5038029;28;20044;-67
2023/12/26 10:19:23;;;;;;;17.13;2.63;;;;;;;-146.25;100.00;70816.00;5035618;28;20035;-66
2023/12/26 10:21:52;;;;;;;14.10;2.60;;;;;;;-146.25;100.00;70816.00;5034767;28;20176;-66
2023/12/26 10:24:18;;;;;;;20.63;3.03;;;;;;;-146.25;100.00;70816.00;5048117;28;20029;-68
2023/12/26 10:26:43;;;;;;;19.63;4.35;;;;;;;-146.25;100.00;70816.00;5035927;28;20493;-67
2023/12/26 10:29:15;;;;;;;23.63;4.90;;;;;;;-146.25;100.00;70816.00;5042939;28;20106;-66
2023/12/26 10:31:42;;;;;;;18.42;2.70;;;;;;;-146.25;100.00;70816.00;5048318;28;20072;-66
2023/12/26 10:34:29;;;;;;;20.80;4.38;;;;;;;-146.25;100.00;70816.00;5047070;28;20545;-66
2023/12/26 10:36:54;;;;;;;20.30;2.92;;;;;;;-146.25;100.00;70816.00;5044244;28;20045;-64
2023/12/26 10:39:20;;;;;;;14.98;2.88;;;;;;;-146.25;100.00;70816.00;5042078;28;20046;-65
2023/12/26 10:41:47;;;;;;;17.48;3.13;;;;;;;-146.25;100.00;70816.00;5038056;28;20091;-65
2023/12/26 10:44:14;;;;;;;16.00;2.75;;;;;;;-146.25;100.00;70816.00;5041943;28;20369;-67
2023/12/26 10:46:41;;;;;;;14.88;2.88;;;;;;;-146.25;100.00;70816.00;5040048;28;20029;-64
2023/12/26 10:49:11;;;;;;;13.95;2.92;;;;;;;-146.25;100.00;70816.00;5039933;28;20041;-66
2023/12/26 10:51:43;;;;;;;17.55;3.10;;;;;;;-146.25;100.00;70816.00;5035857;28;20112;-65
2023/12/26 10:54:08;;;;;;;18.40;2.88;;;;;;;-146.25;100.00;70816.00;5038482;28;20045;-65
2023/12/26 10:56:34;;;;;;;15.90;2.90;;;;;;;-146.25;100.00;70816.00;5036916;28;20361;-65
2023/12/26 10:59:01;;;;;;;17.65;2.75;;;;;;;-146.25;100.00;70816.00;5050987;28;20489;-65
2023/12/26 13:53:48;;;;;;;16.10;2.30;;;;;;;-146.25;100.00;70816.00;5036033;28;20083;-65
2023/12/26 13:56:51;;;;;;;14.93;2.70;;;;;;;-146.25;100.00;70816.00;5033274;28;20413;-65
2023/12/26 13:59:54;;;;;;;17.33;3.05;;;;;;;-146.25;100.00;70816.00;5033583;28;20084;-65
2023/12/26 14:02:57;;;;;;;19.95;3.58;;;;;;;-146.25;100.00;70816.00;5034856;28;20421;-66